Time;durP1;ratioP1;P1;durP2;ratioP2;P2;SDS_P1;SDS_P2;PMS_P1;PMS_P2;Temp;Humidity;BMP_temperature;BMP_pressure;BME280_temperature;BME280_humidity;BME280_pressure;Samples;Min_cycle;Max_cycle;Signal;HPM_P1;HPM_P2
2022/12/15 00:38:52;;;;;;;81.05;52.67;;;-3272.30;88.00;;;;;;5028545;28;20106;-75
2022/12/15 00:41:18;;;;;;;82.03;53.38;;;-3272.40;88.00;;;;;;5023369;28;20047;-77
2022/12/15 00:43:46;;;;;;;79.15;53.42;;;-3272.30;88.00;;;;;;5033163;28;20037;-77
2022/12/15 00:48:57;;;;;;;;;;;-3272.30;88.00;;;;;;5036801;28;20186;-76
2022/12/15 01:21:59;;;;;;;75.85;50.33;;;-3272.10;87.80;;;;;;5027084;28;20057;-76
2022/12/15 01:24:25;;;;;;;77.78;53.22;;;-3272.10;87.80;;;;;;5025057;28;20417;-75
2022/12/15 01:26:53;;;;;;;74.60;51.65;;;-3272.10;87.80;;;;;;5030917;28;20030;-75
2022/12/15 01:29:21;;;;;;;72.90;49.50;;;-3272.10;87.80;;;;;;5023582;28;20029;-74
2022/12/15 01:31:48;;;;;;;82.70;53.22;;;-3272.00;87.80;;;;;;5037154;28;20037;-75
2022/12/15 01:34:18;;;;;;;72.53;48.95;;;-3272.00;87.80;;;;;;5033719;28;20067;-76
2022/12/15 01:36:44;;;;;;;73.45;49.70;;;-3272.00;87.80;;;;;;5031391;28;20025;-75
2022/12/15 01:39:12;;;;;;;82.38;51.53;;;-3272.00;87.90;;;;;;5029003;28;20040;-75
2022/12/15 01:41:50;;;;;;;;;;;;;;;;;;;;;
2022/12/15 01:44:36;;;;;;;72.75;49.42;;;-3272.00;87.90;;;;;;5036697;28;20033;-75
2022/12/15 01:47:02;;;;;;;72.88;49.10;;;-3272.00;88.00;;;;;;5030167;28;20045;-76
2022/12/15 01:49:31;;;;;;;72.15;47.63;;;-3272.00;88.00;;;;;;5031843;28;20033;-75
2022/12/15 01:52:03;;;;;;;71.82;48.00;;;-3272.00;88.00;;;;;;5029917;28;20033;-75
2022/12/15 01:54:39;;;;;;;75.97;47.67;;;-3272.00;87.90;;;;;;5036775;28;20178;-77
2022/12/15 01:57:12;;;;;;;72.18;47.08;;;-3272.00;87.90;;;;;;5034672;28;20037;-76
2022/12/15 01:59:44;;;;;;;68.43;45.08;;;-3272.00;87.80;;;;;;5032968;28;20064;-75
2022/12/15 02:02:13;;;;;;;72.80;47.38;;;-3272.00;87.90;;;;;;5031653;28;20045;-74
2022/12/15 02:04:40;;;;;;;64.20;43.28;;;-3272.00;87.90;;;;;;5027898;28;20041;-74
2022/12/15 02:07:06;;;;;;;70.47;44.83;;;-3272.00;87.90;;;;;;5032780;28;20087;-75
2022/12/15 02:09:36;;;;;;;68.50;45.95;;;-3272.00;88.00;;;;;;5034437;28;20037;-76
2022/12/15 02:12:19;;;;;;;72.13;45.88;;;-3272.00;87.90;;;;;;5033165;28;20370;-75
2022/12/15 02:14:57;;;;;;;77.95;48.67;;;-3272.00;88.00;;;;;;5032032;28;20448;-74
2022/12/15 02:17:45;;;;;;;69.72;47.25;;;-3272.00;87.90;;;;;;5031847;28;20469;-74
2022/12/15 02:20:29;;;;;;;71.80;48.25;;;-3272.00;87.70;;;;;;5030529;28;20092;-76
2022/12/15 02:23:34;;;;;;;76.20;47.55;;;-3271.90;87.50;;;;;;5029902;28;20057;-76
2022/12/15 02:26:21;;;;;;;79.65;46.25;;;-3271.90;87.60;;;;;;5031277;28;20036;-74
2022/12/15 02:29:24;;;;;;;72.72;45.47;;;-3271.90;87.70;;;;;;5026097;28;20056;-74
2022/12/15 02:31:59;;;;;;;70.60;44.55;;;-3271.90;87.80;;;;;;5033176;28;20218;-75
2022/12/15 02:34:40;;;;;;;;;;;-3271.90;87.70;;;;;;5028175;28;20067;-74
2022/12/15 02:37:27;;;;;;;60.70;42.88;;;-3271.90;87.80;;;;;;5032285;28;20376;-75
2022/12/15 02:39:53;;;;;;;71.15;45.33;;;-3271.90;87.70;;;;;;5029813;28;20040;-76
2022/12/15 02:42:20;;;;;;;77.13;51.20;;;-3271.80;87.70;;;;;;5031472;28;20369;-75
2022/12/15 02:45:00;;;;;;;76.85;48.22;;;-3271.80;87.70;;;;;;5030110;28;20052;-75
2022/12/15 02:48:03;;;;;;;76.35;45.65;;;-3271.90;87.80;;;;;;5034613;28;20044;-76
2022/12/15 02:50:55;;;;;;;64.13;41.72;;;-3271.80;87.80;;;;;;5028741;28;20044;-74
2022/12/15 02:53:38;;;;;;;67.93;42.08;;;-3271.90;87.90;;;;;;5029817;28;22070;-74
2022/12/15 02:56:11;;;;;;;70.65;44.05;;;-3271.90;87.90;;;;;;5031278;28;20211;-77
2022/12/15 02:59:17;;;;;;;67.05;44.25;;;-3271.90;87.90;;;;;;5031829;28;20098;-76
2022/12/15 03:01:50;;;;;;;63.08;41.72;;;-3271.90;88.00;;;;;;5037255;28;20037;-76
2022/12/15 03:04:17;;;;;;;66.00;42.67;;;-3271.90;88.00;;;;;;5037861;28;20057;-76
2022/12/15 03:06:42;;;;;;;64.47;41.90;;;-3271.90;88.00;;;;;;5035271;28;20029;-76
2022/12/15 03:09:08;;;;;;;61.88;41.03;;;-3271.90;88.00;;;;;;5029056;28;20060;-78
2022/12/15 03:11:35;;;;;;;61.65;40.70;;;-3271.90;87.90;;;;;;5036220;28;20856;-75
2022/12/15 03:14:13;;;;;;;59.15;40.50;;;-3271.90;88.00;;;;;;5035587;28;20059;-78
2022/12/15 03:16:39;;;;;;;63.95;39.97;;;-3271.90;88.10;;;;;;5034510;28;20044;-75
2022/12/15 03:19:14;;;;;;;61.97;41.05;;;-3271.90;88.10;;;;;;5032718;28;20654;-75
2022/12/15 03:21:45;;;;;;;64.70;41.63;;;-3271.90;88.10;;;;;;5034133;28;20034;-76
2022/12/15 03:24:15;;;;;;;62.95;39.67;;;-3271.90;88.10;;;;;;5035413;28;20049;-75
2022/12/15 03:26:50;;;;;;;67.72;41.67;;;-3271.90;88.20;;;;;;5029688;28;20147;-75
2022/12/15 03:29:19;;;;;;;65.43;40.95;;;-3271.90;88.00;;;;;;5034803;28;20076;-76
2022/12/15 03:31:44;;;;;;;63.03;41.00;;;-3271.80;88.00;;;;;;5034985;28;20040;-76
2022/12/15 03:34:10;;;;;;;62.30;40.75;;;-3271.80;87.90;;;;;;5029480;28;20036;-75
2022/12/15 03:36:36;;;;;;;68.60;44.63;;;-3271.80;87.90;;;;;;5036489;28;20029;-75
2022/12/15 03:39:04;;;;;;;63.58;41.90;;;-3271.80;87.90;;;;;;5034245;28;20520;-75
2022/12/15 03:41:30;;;;;;;72.07;44.35;;;-3271.70;87.90;;;;;;5036651;28;20045;-76
2022/12/15 03:44:00;;;;;;;82.10;48.28;;;-3271.80;88.00;;;;;;5037264;28;20032;-76
2022/12/15 03:46:26;;;;;;;71.85;47.30;;;-3271.80;88.00;;;;;;5038479;28;20808;-75
2022/12/15 03:48:54;;;;;;;74.57;48.72;;;-3271.80;88.10;;;;;;5042494;28;20053;-75
2022/12/15 03:51:20;;;;;;;73.82;47.45;;;-3271.80;88.10;;;;;;5032227;28;20046;-77
2022/12/15 03:53:48;;;;;;;66.65;43.15;;;-3271.80;88.10;;;;;;5039469;28;20474;-75
2022/12/15 03:56:15;;;;;;;65.75;41.72;;;-3271.80;88.10;;;;;;5036857;28;20029;-76
2022/12/15 03:58:41;;;;;;;67.90;44.00;;;-3271.80;88.10;;;;;;5038582;28;20514;-77
2022/12/15 04:01:27;;;;;;;66.90;45.45;;;-3271.80;88.10;;;;;;5031508;28;20095;-75
2022/12/15 04:03:56;;;;;;;69.60;46.20;;;-3271.80;88.10;;;;;;5038468;28;20037;-75
2022/12/15 04:06:21;;;;;;;70.57;47.55;;;-3271.80;88.20;;;;;;5029182;28;20045;-75
2022/12/15 04:08:53;;;;;;;71.68;47.35;;;-3271.80;88.20;;;;;;5039159;28;20030;-75
2022/12/15 04:11:22;;;;;;;67.25;45.03;;;-3271.80;88.20;;;;;;5037324;28;20684;-76
2022/12/15 04:13:50;;;;;;;74.60;47.75;;;-3271.80;88.20;;;;;;5036992;28;20671;-77
2022/12/15 04:16:15;;;;;;;75.50;46.42;;;-3271.80;88.30;;;;;;5036014;28;20056;-76
2022/12/15 04:20:07;;;;;;;66.68;43.45;;;-3271.80;88.30;;;;;;5033153;28;20577;-76
2022/12/15 04:21:44;;;;;;;67.43;44.58;;;-3271.80;88.30;;;;;;5038548;28;20473;-76
2022/12/15 05:33:28;;;;;;;69.03;43.80;;;-3271.60;88.20;;;;;;5027275;28;21169;-78
2022/12/15 05:35:59;;;;;;;71.90;43.35;;;-3271.60;88.30;;;;;;5034859;28;20041;-74
2022/12/15 05:38:27;;;;;;;67.35;44.13;;;-3271.60;88.30;;;;;;5029355;28;20017;-75
2022/12/15 05:40:56;;;;;;;73.82;46.63;;;-3271.60;88.40;;;;;;5028062;28;20091;-74
2022/12/15 05:43:30;;;;;;;65.82;44.70;;;-3271.60;88.50;;;;;;5027001;28;20481;-75
2022/12/15 05:46:01;;;;;;;70.15;45.22;;;-3271.50;88.60;;;;;;5035988;28;20501;-75
2022/12/15 05:48:29;;;;;;;70.88;43.97;;;-3271.50;88.70;;;;;;5033526;28;20029;-76
2022/12/15 05:51:01;;;;;;;70.22;44.47;;;-3271.50;88.70;;;;;;5023584;28;20038;-75
2022/12/15 05:53:27;;;;;;;80.90;48.13;;;-3271.50;88.80;;;;;;5030141;28;20096;-78
2022/12/15 05:56:08;;;;;;;96.75;56.47;;;-3271.50;88.80;;;;;;5026066;28;20452;-75
2022/12/15 05:58:36;;;;;;;103.55;58.10;;;-3271.50;88.80;;;;;;5032208;28;20044;-74
2022/12/15 06:01:09;;;;;;;97.95;58.58;;;-3271.50;88.80;;;;;;5025756;28;20049;-74
2022/12/15 06:03:38;;;;;;;81.78;50.83;;;-3271.50;88.90;;;;;;5035619;28;20036;-74
2022/12/15 06:06:05;;;;;;;77.28;46.92;;;-3271.50;88.80;;;;;;5022453;28;20481;-77
2022/12/15 06:08:33;;;;;;;73.60;44.47;;;-3271.40;88.70;;;;;;5029140;28;20083;-77
2022/12/15 06:10:59;;;;;;;74.43;45.65;;;-3271.50;88.70;;;;;;5027631;28;20115;-75
2022/12/15 06:13:30;;;;;;;69.88;43.97;;;-3271.50;88.70;;;;;;5026534;28;20049;-77
2022/12/15 06:16:18;;;;;;;79.90;46.90;;;-3271.50;88.60;;;;;;5031485;28;20029;-74
2022/12/15 06:18:50;;;;;;;76.72;47.88;;;-3271.60;88.70;;;;;;5032924;28;20396;-77
2022/12/15 06:21:23;;;;;;;71.82;46.35;;;-3271.60;88.40;;;;;;5034390;28;20432;-75
2022/12/15 06:23:51;;;;;;;77.80;45.75;;;-3271.50;88.00;;;;;;5025951;28;20044;-76
2022/12/15 06:26:21;;;;;;;72.53;45.03;;;-3271.50;88.00;;;;;;5027095;28;20047;-76
2022/12/15 06:28:50;;;;;;;71.07;45.30;;;-3271.50;88.00;;;;;;5030870;28;20029;-76
2022/12/15 06:31:19;;;;;;;78.07;48.53;;;-3271.50;88.10;;;;;;5026041;28;20042;-75
2022/12/15 06:33:47;;;;;;;73.28;47.53;;;-3271.40;88.10;;;;;;5019565;28;20041;-76
2022/12/15 06:36:18;;;;;;;70.22;45.47;;;-3271.40;88.20;;;;;;5028619;28;20041;-75
2022/12/15 06:38:45;;;;;;;70.38;44.38;;;-3271.40;88.30;;;;;;5035483;28;20037;-77
2022/12/15 06:41:14;;;;;;;73.07;45.75;;;-3271.40;88.30;;;;;;5027824;28;20051;-75
2022/12/15 06:43:41;;;;;;;73.25;48.47;;;-3271.50;88.40;;;;;;5033663;28;20033;-76
2022/12/15 06:46:10;;;;;;;70.45;47.72;;;-3271.50;88.40;;;;;;5023141;28;20475;-77
2022/12/15 06:48:35;;;;;;;72.30;45.08;;;-3271.50;88.50;;;;;;5035822;28;20053;-76
2022/12/15 06:51:06;;;;;;;72.30;46.35;;;-3271.50;88.40;;;;;;5036901;28;20060;-76
2022/12/15 06:53:39;;;;;;;71.97;46.72;;;-3271.50;88.40;;;;;;5028104;28;20108;-76
2022/12/15 06:56:14;;;;;;;74.70;49.25;;;-3271.50;88.30;;;;;;5025201;28;20361;-76
2022/12/15 06:58:40;;;;;;;79.38;51.72;;;-3271.50;88.30;;;;;;5033570;28;20035;-78
2022/12/15 07:01:09;;;;;;;84.95;51.95;;;-3271.50;88.30;;;;;;5023621;28;20033;-77
2022/12/15 07:03:38;;;;;;;82.70;51.78;;;-3271.50;88.10;;;;;;5037805;28;20033;-76
2022/12/15 07:06:09;;;;;;;84.53;55.83;;;-3271.50;88.00;;;;;;5020498;28;20476;-76
2022/12/15 07:08:35;;;;;;;78.05;51.53;;;-3271.40;88.00;;;;;;5027402;28;20048;-75
2022/12/15 07:11:10;;;;;;;78.55;52.55;;;-3271.40;88.00;;;;;;5024849;28;20389;-75
2022/12/15 07:13:35;;;;;;;81.95;51.60;;;-3271.40;88.00;;;;;;5032125;28;20041;-74
2022/12/15 07:16:06;;;;;;;77.97;52.22;;;-3271.40;88.00;;;;;;5025576;28;20080;-75
2022/12/15 07:18:34;;;;;;;84.75;55.08;;;-3271.40;88.00;;;;;;5028874;28;20476;-74
2022/12/15 07:21:05;;;;;;;83.95;54.58;;;-3271.40;88.00;;;;;;5024417;28;20037;-76
2022/12/15 07:23:34;;;;;;;85.82;54.35;;;-3271.40;88.00;;;;;;5031946;28;20392;-76
2022/12/15 07:26:09;;;;;;;79.18;53.22;;;-3271.40;88.00;;;;;;5034648;28;20394;-76
2022/12/15 07:28:37;;;;;;;76.13;51.40;;;-3271.40;88.00;;;;;;5032477;28;20033;-77
2022/12/15 07:31:11;;;;;;;79.72;53.13;;;-3271.40;87.80;;;;;;5030382;28;20045;-77
2022/12/15 07:33:37;;;;;;;83.90;52.90;;;-3271.30;87.80;;;;;;5028173;28;20056;-76
2022/12/15 07:36:04;;;;;;;82.18;53.53;;;-3271.30;87.80;;;;;;5032757;28;20037;-76
2022/12/15 07:38:30;;;;;;;80.10;53.28;;;-3271.40;87.90;;;;;;5032879;28;20025;-77
2022/12/15 07:41:01;;;;;;;91.47;56.10;;;-3271.40;87.80;;;;;;5028858;28;20033;-75
2022/12/15 07:43:28;;;;;;;94.18;57.20;;;-3271.40;87.90;;;;;;5023636;28;20402;-76
2022/12/15 07:45:56;;;;;;;100.55;57.72;;;-3271.40;87.80;;;;;;5038242;28;20695;-75
2022/12/15 07:48:30;;;;;;;88.93;54.50;;;-3271.40;87.70;;;;;;5036612;28;20500;-74
2022/12/15 07:50:58;;;;;;;91.60;56.85;;;-3271.40;87.70;;;;;;5027958;28;20050;-75
2022/12/15 07:53:27;;;;;;;95.28;53.13;;;-3271.40;87.70;;;;;;5038875;28;20029;-75
2022/12/15 07:55:57;;;;;;;87.80;52.63;;;-3271.40;87.60;;;;;;5030252;28;20033;-75
2022/12/15 07:58:27;;;;;;;81.72;53.00;;;-3271.50;87.60;;;;;;5031823;28;20423;-76
2022/12/15 08:00:59;;;;;;;93.10;56.17;;;-3271.50;87.50;;;;;;5030160;28;20037;-75
2022/12/15 08:03:24;;;;;;;84.93;53.97;;;-3271.50;87.40;;;;;;5040529;28;20029;-76
2022/12/15 08:05:50;;;;;;;84.97;52.08;;;-3271.50;87.40;;;;;;5039686;28;20041;-75
2022/12/15 08:08:18;;;;;;;74.40;49.33;;;-3271.50;87.40;;;;;;5030085;28;20500;-75
2022/12/15 08:10:47;;;;;;;77.72;48.10;;;-3271.60;87.40;;;;;;5030576;28;20041;-75
2022/12/15 08:13:15;;;;;;;77.38;51.03;;;-3271.60;87.50;;;;;;5033690;28;20041;-74
2022/12/15 08:15:43;;;;;;;80.38;49.83;;;-3271.60;87.50;;;;;;5024644;28;20116;-75
2022/12/15 08:18:19;;;;;;;79.72;50.35;;;-3271.70;87.70;;;;;;5034577;28;20055;-77
2022/12/15 08:20:47;;;;;;;81.78;51.55;;;-3271.80;87.60;;;;;;5041240;28;20049;-76
2022/12/15 08:23:13;;;;;;;83.53;53.58;;;-3271.80;87.70;;;;;;5035849;28;20118;-78
2022/12/15 08:25:43;;;;;;;85.65;54.25;;;-3272.00;87.80;;;;;;5032934;28;20072;-76
2022/12/15 08:28:11;;;;;;;73.45;50.25;;;-3272.00;87.50;;;;;;5031632;28;20038;-75
2022/12/15 08:30:39;;;;;;;76.82;49.40;;;-3272.00;87.50;;;;;;5035272;28;20301;-74
2022/12/15 08:33:07;;;;;;;83.00;47.85;;;-3272.10;87.60;;;;;;5028654;28;20033;-74
2022/12/15 08:35:40;;;;;;;81.50;49.13;;;-3272.20;87.80;;;;;;5033172;28;20049;-73
2022/12/15 08:38:06;;;;;;;75.05;49.00;;;-3272.30;88.00;;;;;;5030837;28;20034;-74
2022/12/15 08:40:31;;;;;;;76.72;48.42;;;-3272.40;88.00;;;;;;5031314;28;20120;-74
2022/12/15 08:42:57;;;;;;;76.28;48.53;;;-3272.50;88.00;;;;;;5029570;28;20492;-74
2022/12/15 08:45:23;;;;;;;75.50;49.90;;;-3272.60;87.80;;;;;;5029082;28;20045;-73
2022/12/15 08:47:48;;;;;;;81.10;52.35;;;-3272.60;87.60;;;;;;5032846;28;20108;-74
2022/12/15 08:50:14;;;;;;;75.38;51.22;;;-3272.70;87.70;;;;;;5031401;28;20033;-74
2022/12/15 08:52:42;;;;;;;91.28;55.40;;;-3272.90;87.70;;;;;;5026939;28;20986;-74
2022/12/15 08:55:11;;;;;;;74.43;48.65;;;-3273.00;87.60;;;;;;5028000;28;20535;-76
2022/12/15 08:57:39;;;;;;;70.10;47.75;;;-3273.10;87.40;;;;;;5028082;28;20052;-76
2022/12/15 09:00:05;;;;;;;77.88;49.90;;;-3273.10;87.00;;;;;;5037747;28;20049;-76
2022/12/15 09:02:33;;;;;;;77.80;48.80;;;-3273.20;86.80;;;;;;5030199;28;20033;-74
2022/12/15 09:04:59;;;;;;;80.75;48.65;;;-3273.30;86.80;;;;;;5029653;28;20465;-75
2022/12/15 09:07:27;;;;;;;73.95;46.90;;;-3273.30;86.70;;;;;;5030042;28;20038;-77
2022/12/15 09:09:53;;;;;;;71.47;46.90;;;-3273.40;86.70;;;;;;5034254;28;20033;-74
2022/12/15 09:12:19;;;;;;;72.47;47.67;;;-3273.50;87.00;;;;;;5032223;28;20123;-75
2022/12/15 09:14:46;;;;;;;73.53;46.72;;;-3273.60;87.10;;;;;;5029875;28;20048;-76
2022/12/15 09:17:12;;;;;;;78.03;46.90;;;-3273.70;87.20;;;;;;5027321;28;20045;-74
2022/12/15 09:19:40;;;;;;;71.85;46.35;;;-3273.80;87.20;;;;;;5029768;28;20569;-75
2022/12/15 09:22:08;;;;;;;66.63;43.63;;;-3273.80;87.20;;;;;;5027509;28;20500;-75
2022/12/15 09:24:34;;;;;;;75.22;47.30;;;-3273.90;87.20;;;;;;5030533;28;20071;-74
2022/12/15 09:27:01;;;;;;;73.82;45.40;;;-3274.00;87.10;;;;;;5026935;28;20478;-74
2022/12/15 09:29:27;;;;;;;67.53;42.53;;;-3274.10;87.10;;;;;;5036361;28;20041;-74
2022/12/15 09:31:53;;;;;;;70.88;44.58;;;-3274.10;86.90;;;;;;5030600;28;20430;-74
2022/12/15 09:34:19;;;;;;;72.07;44.88;;;-3274.30;87.00;;;;;;5031498;28;20154;-74
2022/12/15 09:36:44;;;;;;;71.22;44.30;;;-3274.40;87.10;;;;;;5033032;28;20052;-74
2022/12/15 09:39:11;;;;;;;70.13;44.10;;;-3274.50;86.80;;;;;;5031818;28;20469;-72
2022/12/15 09:41:40;;;;;;;61.92;42.53;;;-3274.60;86.50;;;;;;5037312;28;20201;-73
2022/12/15 09:44:29;;;;;;;66.35;43.13;;;-3274.70;86.30;;;;;;5031310;28;20091;-73
2022/12/15 09:47:32;;;;;;;65.95;41.80;;;-3274.90;86.50;;;;;;5027737;28;20025;-73
2022/12/15 09:50:01;;;;;;;71.20;44.40;;;-3275.00;86.10;;;;;;5032988;28;20500;-73
2022/12/15 09:52:29;;;;;;;62.47;40.42;;;-3275.10;85.80;;;;;;5027619;28;20152;-74
2022/12/15 09:55:00;;;;;;;71.70;44.55;;;-3275.30;85.90;;;;;;5031332;28;20057;-73
2022/12/15 09:57:53;;;;;;;72.38;41.45;;;-3275.40;85.70;;;;;;5028528;28;20049;-73
2022/12/15 10:00:24;;;;;;;67.07;40.08;;;-3275.50;84.90;;;;;;5029988;28;20037;-72
2022/12/15 10:03:11;;;;;;;68.00;43.05;;;-3275.60;84.70;;;;;;5025704;28;20449;-74
2022/12/15 10:06:03;;;;;;;69.22;42.42;;;-3275.60;84.40;;;;;;5033533;28;20540;-74
2022/12/15 10:09:01;;;;;;;68.32;42.42;;;-3275.60;84.50;;;;;;5026017;28;20393;-75
2022/12/15 10:11:51;;;;;;;63.75;42.08;;;-3275.60;84.50;;;;;;5028288;28;20073;-75
2022/12/15 10:14:38;;;;;;;61.35;40.42;;;-3275.60;84.50;;;;;;5039042;28;20045;-73
2022/12/15 10:17:13;;;;;;;61.75;40.08;;;-3275.60;84.60;;;;;;5026837;28;20555;-73
2022/12/15 10:20:04;;;;;;;59.25;39.28;;;-3275.70;84.80;;;;;;5026635;28;20029;-73
2022/12/15 10:22:43;;;;;;;64.57;41.95;;;-3275.80;84.70;;;;;;5030583;28;20455;-74
2022/12/15 10:25:30;;;;;;;64.93;39.20;;;-3275.90;84.70;;;;;;5033396;28;20034;-74
2022/12/15 10:27:58;;;;;;;62.45;41.50;;;-3275.90;84.40;;;;;;5029160;28;20053;-74
2022/12/15 10:30:24;;;;;;;67.75;41.53;;;-3275.70;83.50;;;;;;5026555;28;20053;-74
2022/12/15 10:33:07;;;;;;;64.22;40.38;;;-3275.70;84.00;;;;;;5029704;28;20099;-74
2022/12/15 10:35:34;;;;;;;64.45;39.58;;;-3275.70;84.30;;;;;;5033635;28;20107;-74
2022/12/15 10:38:05;;;;;;;63.33;41.78;;;-3275.70;84.20;;;;;;5030195;28;20056;-73
2022/12/15 10:41:00;;;;;;;;;;;;;;;;;;;;;
2022/12/15 10:43:32;;;;;;;63.25;40.05;;;-3275.80;84.80;;;;;;5022503;28;20037;-74
2022/12/15 10:46:21;;;;;;;67.03;42.58;;;-3275.80;84.70;;;;;;5031088;28;20116;-74
2022/12/15 10:49:13;;;;;;;64.32;40.58;;;-3275.70;84.30;;;;;;5013805;28;20045;-75
2022/12/15 10:51:59;;;;;;;61.13;39.25;;;-3275.80;84.80;;;;;;5026917;28;20045;-73
2022/12/15 10:54:43;;;;;;;58.08;38.35;;;-3275.80;85.10;;;;;;5026908;28;20037;-74
2022/12/15 10:57:24;;;;;;;57.08;39.45;;;-3276.00;85.20;;;;;;5028322;28;20043;-74
2022/12/15 10:59:53;;;;;;;65.05;42.60;;;-3276.00;85.00;;;;;;5036508;28;20041;-75
2022/12/15 11:02:22;;;;;;;58.78;41.92;;;-3276.00;84.60;;;;;;5027619;28;20115;-73
2022/12/15 11:05:15;;;;;;;60.35;42.17;;;-3276.10;84.50;;;;;;5027562;28;20783;-75
2022/12/15 11:07:44;;;;;;;60.28;40.15;;;-3276.10;84.30;;;;;;5026798;28;20030;-74
2022/12/15 11:10:25;;;;;;;63.30;45.70;;;-3276.10;84.50;;;;;;5028491;28;20501;-75
2022/12/15 11:12:56;;;;;;;66.80;46.90;;;-3276.20;84.50;;;;;;5025120;28;20533;-74
2022/12/15 11:15:22;;;;;;;67.68;44.72;;;-3276.20;84.30;;;;;;5025329;28;20045;-74
2022/12/15 11:17:53;;;;;;;64.43;42.22;;;-3276.20;84.20;;;;;;5024062;28;20088;-74
2022/12/15 11:20:42;;;;;;;63.03;41.60;;;-3276.30;84.30;;;;;;5024016;28;20484;-73
2022/12/15 11:23:15;;;;;;;60.17;42.47;;;-3276.30;84.40;;;;;;5027569;28;20049;-74
2022/12/15 11:25:49;;;;;;;56.70;40.95;;;-3276.30;84.20;;;;;;5030329;28;20497;-74
2022/12/15 11:28:20;;;;;;;60.30;41.47;;;-3276.40;83.90;;;;;;5029731;28;20044;-74
2022/12/15 11:31:06;;;;;;;59.03;40.80;;;-3276.40;84.00;;;;;;5035798;28;20105;-74
2022/12/15 11:33:35;;;;;;;63.63;41.75;;;-3276.50;84.20;;;;;;5031724;28;20033;-75
2022/12/15 11:36:10;;;;;;;66.00;44.50;;;-3276.60;84.00;;;;;;5034232;28;20029;-75
2022/12/15 11:39:16;;;;;;;62.40;42.85;;;-3276.70;83.30;;;;;;5031527;28;20124;-75
2022/12/15 11:42:03;;;;;;;66.82;42.78;;;0.00;83.40;;;;;;5021851;28;20057;-76
2022/12/15 11:44:40;;;;;;;63.45;43.63;;;0.10;82.80;;;;;;5032292;28;20025;-75
2022/12/15 11:47:47;;;;;;;68.55;46.38;;;0.10;82.80;;;;;;5035014;28;20513;-74
2022/12/15 11:50:18;;;;;;;65.95;44.05;;;0.20;83.20;;;;;;5033035;28;20045;-74
2022/12/15 11:53:05;;;;;;;72.57;46.67;;;0.30;83.10;;;;;;5028488;28;20037;-75
2022/12/15 11:56:01;;;;;;;66.18;45.45;;;0.40;83.00;;;;;;5035662;28;20348;-75
2022/12/15 11:58:32;;;;;;;;;;;0.40;82.40;;;;;;5034464;28;20037;-75
2022/12/15 12:01:45;;;;;;;70.68;47.75;;;0.40;82.60;;;;;;5028750;28;20313;-74
2022/12/15 12:04:42;;;;;;;78.47;50.30;;;0.60;82.70;;;;;;5029148;28;20041;-75
2022/12/15 12:07:36;;;;;;;66.75;46.15;;;0.60;82.00;;;;;;5037739;28;20036;-75
2022/12/15 12:10:11;;;;;;;63.92;47.88;;;0.60;82.40;;;;;;5030616;28;20445;-75
2022/12/15 12:13:03;;;;;;;69.10;47.97;;;0.70;82.50;;;;;;5032608;28;20255;-75
2022/12/15 12:15:42;;;;;;;66.30;47.85;;;0.70;82.80;;;;;;5026410;28;20087;-75
2022/12/15 12:18:21;;;;;;;71.20;51.10;;;0.80;82.80;;;;;;5033223;28;20025;-74
2022/12/15 12:20:57;;;;;;;72.28;50.92;;;1.00;82.90;;;;;;5029293;28;20041;-74
2022/12/15 12:23:46;;;;;;;68.78;49.75;;;1.00;82.00;;;;;;5030736;28;20382;-75
2022/12/15 12:26:25;;;;;;;79.00;53.42;;;1.10;82.60;;;;;;5030895;28;20052;-75
2022/12/15 12:29:20;;;;;;;83.53;53.53;;;1.10;82.20;;;;;;5031747;28;20029;-75
2022/12/15 12:32:14;;;;;;;78.30;52.30;;;1.10;81.60;;;;;;5035949;28;20049;-75
2022/12/15 12:34:58;;;;;;;74.13;51.03;;;1.20;81.70;;;;;;5029822;28;20061;-75
2022/12/15 12:37:48;;;;;;;72.78;52.20;;;1.30;82.10;;;;;;5029244;28;20082;-75
2022/12/15 12:40:34;;;;;;;83.60;56.55;;;1.40;81.80;;;;;;5030018;28;20033;-74
2022/12/15 12:43:01;;;;;;;76.70;54.00;;;1.60;81.80;;;;;;5024712;28;20116;-74
2022/12/15 12:45:53;;;;;;;74.82;53.38;;;1.60;81.30;;;;;;5031753;28;20141;-74
2022/12/15 12:48:43;;;;;;;75.75;52.45;;;1.60;80.90;;;;;;5026499;28;20107;-74
2022/12/15 12:51:17;;;;;;;73.20;51.72;;;1.60;80.60;;;;;;5032462;28;20500;-74
2022/12/15 12:53:46;;;;;;;69.53;50.30;;;1.60;81.10;;;;;;5037481;28;20036;-75
2022/12/15 12:56:38;;;;;;;71.97;50.53;;;1.60;81.10;;;;;;5032292;28;20041;-75
2022/12/15 12:59:25;;;;;;;70.68;51.97;;;1.60;80.90;;;;;;5030347;28;20049;-73
2022/12/15 13:01:53;;;;;;;69.63;50.33;;;1.60;81.00;;;;;;5025796;28;20849;-73
2022/12/15 13:04:27;;;;;;;75.30;50.72;;;1.60;81.00;;;;;;5023139;28;20060;-75
2022/12/15 13:07:01;;;;;;;;;;;1.60;81.30;;;;;;5041061;28;20607;-74
2022/12/15 13:09:41;;;;;;;84.32;53.03;;;1.70;81.40;;;;;;5034165;28;19956;-76
2022/12/15 13:12:35;;;;;;;66.38;49.78;;;1.60;81.20;;;;;;5030046;28;20120;-75
2022/12/15 13:15:10;;;;;;;69.35;47.88;;;1.60;81.90;;;;;;5030309;28;20028;-75
2022/12/15 13:17:47;;;;;;;71.93;51.30;;;1.60;82.00;;;;;;5032671;28;20072;-76
2022/12/15 13:20:29;;;;;;;75.40;51.53;;;1.70;81.80;;;;;;5026435;28;20586;-74
2022/12/15 13:23:18;;;;;;;81.68;56.13;;;1.70;81.80;;;;;;5035700;28;20576;-75
2022/12/15 13:25:45;;;;;;;81.85;56.08;;;1.60;82.30;;;;;;5030735;28;20034;-78
2022/12/15 13:28:22;;;;;;;76.28;57.03;;;1.60;82.20;;;;;;5024508;28;20041;-76
2022/12/15 13:31:21;;;;;;;78.30;55.22;;;1.60;82.80;;;;;;5030232;28;20041;-75
2022/12/15 13:33:51;;;;;;;78.88;54.65;;;1.60;82.80;;;;;;5023508;28;20045;-76
2022/12/15 13:36:35;;;;;;;75.85;53.55;;;1.60;83.20;;;;;;5023722;28;20037;-75
2022/12/15 13:39:04;;;;;;;72.28;54.72;;;1.60;83.40;;;;;;5029442;28;20257;-74
2022/12/15 13:41:33;;;;;;;80.30;57.05;;;1.60;83.60;;;;;;5031232;28;20037;-74
2022/12/15 13:44:00;;;;;;;71.93;54.47;;;1.70;83.80;;;;;;5026873;28;20021;-76
2022/12/15 13:46:36;;;;;;;75.40;57.30;;;1.70;83.80;;;;;;5027405;28;20080;-75
2022/12/15 13:49:39;;;;;;;80.85;57.50;;;1.70;83.80;;;;;;5032874;28;20049;-75
2022/12/15 13:52:26;;;;;;;75.18;55.67;;;1.70;83.90;;;;;;5021061;28;20056;-75
2022/12/15 13:54:56;;;;;;;68.35;52.88;;;1.60;84.00;;;;;;5039965;28;20110;-75
2022/12/15 14:05:20;;;;;;;76.35;53.40;;;1.60;84.00;;;;;;5006953;28;21346;-74
2022/12/15 14:07:58;;;;;;;68.03;52.17;;;1.50;84.20;;;;;;5011499;28;20255;-74
2022/12/15 14:10:27;;;;;;;67.10;51.42;;;1.50;84.60;;;;;;5014042;28;20088;-75
2022/12/15 14:13:04;;;;;;;81.95;60.25;;;1.50;84.60;;;;;;5010410;28;20042;-74
2022/12/15 14:15:31;;;;;;;83.13;60.38;;;1.60;84.90;;;;;;5014412;28;20040;-73
2022/12/15 14:18:01;;;;;;;84.25;63.80;;;1.60;85.10;;;;;;5013452;28;20065;-73
2022/12/15 14:20:43;;;;;;;80.60;58.80;;;1.60;85.30;;;;;;5017593;28;20052;-73
2022/12/15 14:23:21;;;;;;;84.78;61.63;;;1.60;85.30;;;;;;5018074;28;20132;-74
2022/12/15 14:26:30;;;;;;;81.68;60.88;;;1.60;85.20;;;;;;5015772;28;20128;-74
2022/12/15 14:29:05;;;;;;;79.28;58.70;;;1.60;85.20;;;;;;4985768;28;20042;-75
2022/12/15 14:31:33;;;;;;;86.85;62.22;;;1.60;85.10;;;;;;5013547;28;20048;-74
2022/12/15 14:34:10;;;;;;;73.55;58.30;;;1.60;85.30;;;;;;4996237;28;20090;-74
2022/12/15 14:36:38;;;;;;;78.60;58.90;;;1.70;85.20;;;;;;5012687;28;20033;-74
2022/12/15 14:39:12;;;;;;;74.88;54.40;;;1.60;85.30;;;;;;5010969;28;20050;-74
2022/12/15 14:41:49;;;;;;;75.82;56.60;;;1.60;85.10;;;;;;5009793;28;20087;-74
2022/12/15 14:44:18;;;;;;;76.07;56.95;;;1.50;85.10;;;;;;5007441;28;20038;-75
2022/12/15 14:47:15;;;;;;;83.13;62.45;;;1.50;85.20;;;;;;5010439;28;20045;-75
2022/12/15 14:49:44;;;;;;;85.00;59.58;;;1.50;85.50;;;;;;5012692;28;20075;-73
2022/12/15 14:52:28;;;;;;;90.85;62.60;;;1.50;85.60;;;;;;5008363;28;20125;-73
2022/12/15 14:55:02;;;;;;;85.05;63.45;;;1.40;85.70;;;;;;5014778;28;20042;-74
2022/12/15 14:57:36;;;;;;;89.77;61.97;;;1.40;85.80;;;;;;5013902;28;20048;-73
2022/12/15 15:00:22;;;;;;;;;;;1.40;85.80;;;;;;5021345;28;20037;-74
2022/12/15 15:03:12;;;;;;;79.70;56.03;;;1.40;85.90;;;;;;5028044;28;20336;-74
2022/12/15 15:05:45;;;;;;;81.55;58.85;;;1.20;85.90;;;;;;5015844;28;20347;-75
2022/12/15 15:08:24;;;;;;;85.07;58.75;;;1.10;85.90;;;;;;5015699;28;20516;-74
2022/12/15 15:10:53;;;;;;;81.15;59.10;;;1.00;86.00;;;;;;5013965;28;20519;-74
2022/12/15 15:13:24;;;;;;;78.50;58.90;;;1.00;86.10;;;;;;5016300;28;20049;-75
2022/12/15 15:15:56;;;;;;;81.70;58.65;;;0.80;86.20;;;;;;5007619;28;20046;-76
2022/12/15 15:18:25;;;;;;;76.63;58.08;;;0.70;86.40;;;;;;5016434;28;20051;-75